createdAt,value
2017-05-19T00:00:40.547Z,0
2017-05-19T00:01:41.124Z,0
2017-05-19T00:02:41.702Z,0
2017-05-19T00:03:42.279Z,0
2017-05-19T00:04:42.856Z,0
2017-05-19T00:05:43.432Z,0
2017-05-19T00:06:44.008Z,0
2017-05-19T00:07:44.585Z,0
2017-05-19T00:08:45.162Z,0
2017-05-19T00:09:45.739Z,0
2017-05-19T00:10:46.317Z,0
2017-05-19T00:11:46.895Z,0
2017-05-19T00:12:47.476Z,0
2017-05-19T00:13:48.052Z,0
2017-05-19T00:14:48.627Z,0
2017-05-19T00:15:49.207Z,0
2017-05-19T00:16:49.783Z,0
2017-05-19T00:17:50.376Z,0
2017-05-19T00:18:50.951Z,0
2017-05-19T00:19:51.526Z,0
2017-05-19T00:20:52.106Z,0
2017-05-19T00:21:52.684Z,0
2017-05-19T00:22:53.273Z,0
2017-05-19T00:23:53.852Z,0
2017-05-19T00:24:54.429Z,0
2017-05-19T00:25:55.007Z,0
2017-05-19T00:26:55.584Z,0
2017-05-19T00:27:56.160Z,0
2017-05-19T00:28:56.737Z,0
2017-05-19T00:29:57.314Z,0
2017-05-19T00:30:57.902Z,0
2017-05-19T00:31:58.485Z,0
2017-05-19T00:32:59.057Z,0
2017-05-19T00:33:59.633Z,0
2017-05-19T00:35:00.212Z,0
2017-05-19T00:36:00.788Z,0
2017-05-19T00:37:01.365Z,0
2017-05-19T00:38:01.942Z,0
2017-05-19T00:39:02.518Z,0
2017-05-19T00:40:03.096Z,0
2017-05-19T00:41:03.672Z,0
2017-05-19T00:42:04.252Z,0
2017-05-19T00:43:04.844Z,0
2017-05-19T00:44:05.434Z,0
2017-05-19T00:45:06.013Z,0
2017-05-19T00:46:06.588Z,0
2017-05-19T00:47:07.164Z,0
2017-05-19T00:48:07.740Z,0
2017-05-19T00:49:08.316Z,0
2017-05-19T00:50:08.892Z,0
2017-05-19T00:51:09.469Z,0
2017-05-19T00:52:10.046Z,0
2017-05-19T00:53:10.630Z,0
2017-05-19T00:54:11.200Z,0
2017-05-19T00:55:11.779Z,0
2017-05-19T00:56:12.368Z,0
2017-05-19T00:57:12.944Z,0
2017-05-19T00:58:13.521Z,0
2017-05-19T00:59:14.098Z,0
2017-05-19T01:00:14.674Z,0
2017-05-19T01:01:15.251Z,0
2017-05-19T01:02:15.827Z,0
2017-05-19T01:03:16.401Z,0
2017-05-19T01:04:16.991Z,0
2017-05-19T01:05:17.569Z,0
2017-05-19T01:06:18.145Z,0
2017-05-19T01:07:18.722Z,0
2017-05-19T01:08:19.300Z,0
2017-05-19T01:09:19.875Z,0
2017-05-19T01:10:20.451Z,0
2017-05-19T01:11:21.031Z,0
2017-05-19T01:12:21.603Z,0
2017-05-19T01:13:22.180Z,0
2017-05-19T01:14:22.757Z,0
2017-05-19T01:15:23.346Z,0
2017-05-19T01:16:23.924Z,0
2017-05-19T01:17:24.501Z,0
2017-05-19T01:18:25.091Z,0
2017-05-19T01:19:25.680Z,0
2017-05-19T01:20:26.256Z,0
2017-05-19T01:21:26.834Z,0
2017-05-19T01:22:27.412Z,0
2017-05-19T01:23:27.990Z,0
2017-05-19T01:24:28.568Z,0
2017-05-19T01:25:29.145Z,0
2017-05-19T01:26:29.726Z,0
2017-05-19T01:27:30.301Z,0
2017-05-19T01:28:30.892Z,0
2017-05-19T01:29:31.471Z,0
2017-05-19T01:30:32.047Z,0
2017-05-19T01:31:32.624Z,0
2017-05-19T01:32:33.200Z,0
2017-05-19T01:33:33.777Z,0
2017-05-19T01:34:34.356Z,0
2017-05-19T01:35:34.933Z,0
2017-05-19T01:36:35.510Z,0
2017-05-19T01:37:36.086Z,0
2017-05-19T01:38:36.665Z,0
2017-05-19T01:39:37.246Z,0
2017-05-19T01:40:37.824Z,0
2017-05-19T01:41:38.401Z,0
2017-05-19T01:42:38.992Z,0
2017-05-19T01:43:39.581Z,0
2017-05-19T01:44:40.170Z,0
2017-05-19T01:45:40.750Z,0
2017-05-19T01:46:41.332Z,0
2017-05-19T01:47:41.904Z,0
2017-05-19T01:48:42.482Z,0
2017-05-19T01:49:43.058Z,0
2017-05-19T01:50:43.636Z,0
2017-05-19T01:51:44.213Z,0
2017-05-19T01:52:44.792Z,0
2017-05-19T01:53:45.384Z,0
2017-05-19T01:54:45.961Z,0
2017-05-19T01:55:46.553Z,0
2017-05-19T01:56:47.134Z,0
2017-05-19T01:57:47.710Z,0
2017-05-19T01:58:48.287Z,0
2017-05-19T01:59:48.866Z,0
2017-05-19T02:00:49.444Z,0
2017-05-19T02:01:50.023Z,0
2017-05-19T02:02:50.600Z,0
2017-05-19T02:03:51.179Z,0
2017-05-19T02:04:51.756Z,0
2017-05-19T02:05:52.335Z,0
2017-05-19T02:06:52.912Z,0
2017-05-19T02:07:53.489Z,0
2017-05-19T02:08:54.067Z,0
2017-05-19T02:09:54.646Z,0
2017-05-19T02:10:55.224Z,0
2017-05-19T02:11:55.835Z,0
2017-05-19T02:12:56.400Z,0
2017-05-19T02:13:56.974Z,0
2017-05-19T02:14:57.552Z,0
2017-05-19T02:15:58.133Z,0
2017-05-19T02:16:58.711Z,0
2017-05-19T02:17:59.287Z,0
2017-05-19T02:18:59.864Z,0
2017-05-19T02:20:00.442Z,0
2017-05-19T02:21:01.019Z,0
2017-05-19T02:22:01.597Z,0
2017-05-19T02:23:02.187Z,0
2017-05-19T02:24:02.769Z,0
2017-05-19T02:25:03.345Z,0
2017-05-19T02:26:03.925Z,0
2017-05-19T02:27:04.506Z,0
2017-05-19T02:28:05.082Z,0
2017-05-19T02:29:05.659Z,0
2017-05-19T02:30:06.238Z,0
2017-05-19T02:31:06.814Z,0
2017-05-19T02:32:07.392Z,0
2017-05-19T02:33:07.969Z,0
2017-05-19T02:34:08.546Z,0
2017-05-19T02:35:09.126Z,0
2017-05-19T02:36:09.704Z,0
2017-05-19T02:37:10.282Z,0
2017-05-19T02:38:10.859Z,0
2017-05-19T02:39:11.437Z,0
2017-05-19T02:40:12.014Z,0
2017-05-19T02:41:12.593Z,0
2017-05-19T02:42:13.169Z,0
2017-05-19T02:43:13.748Z,0
2017-05-19T02:44:14.329Z,0
2017-05-19T02:45:14.905Z,0
2017-05-19T02:46:15.488Z,0
2017-05-19T02:47:16.063Z,0
2017-05-19T02:48:16.642Z,0
2017-05-19T02:49:17.218Z,0
2017-05-19T02:50:17.794Z,0
2017-05-19T02:51:18.373Z,0
2017-05-19T02:52:18.964Z,0
2017-05-19T02:53:19.542Z,0
2017-05-19T02:54:20.117Z,0
2017-05-19T02:55:20.694Z,0
2017-05-19T02:56:21.272Z,0
2017-05-19T02:57:21.848Z,0
2017-05-19T02:58:22.428Z,0
2017-05-19T02:59:23.006Z,0
2017-05-19T03:00:23.585Z,0
2017-05-19T03:01:24.162Z,0
2017-05-19T03:02:24.739Z,0
2017-05-19T03:03:25.316Z,0
2017-05-19T03:04:25.894Z,0
2017-05-19T03:05:26.470Z,0
2017-05-19T03:06:27.047Z,0
2017-05-19T03:07:27.624Z,0
2017-05-19T03:08:28.199Z,0
2017-05-19T03:09:28.779Z,0
2017-05-19T03:10:29.355Z,0
2017-05-19T03:11:29.947Z,0
2017-05-19T03:12:30.524Z,0
2017-05-19T03:13:31.100Z,0
2017-05-19T03:14:31.680Z,0
2017-05-19T03:15:32.257Z,0
2017-05-19T03:16:32.836Z,4
2017-05-19T03:17:33.412Z,4
2017-05-19T03:18:33.990Z,4
2017-05-19T03:19:34.567Z,4
2017-05-19T03:20:35.144Z,0
2017-05-19T03:21:35.722Z,0
2017-05-19T03:22:36.298Z,4
2017-05-19T03:23:36.876Z,4
2017-05-19T03:24:37.452Z,4
2017-05-19T03:25:38.035Z,4
2017-05-19T03:26:38.626Z,4
2017-05-19T03:27:39.204Z,4
2017-05-19T03:28:39.784Z,4
2017-05-19T03:29:40.361Z,8
2017-05-19T03:30:40.941Z,4
2017-05-19T03:31:41.518Z,4
2017-05-19T03:32:42.110Z,8
2017-05-19T03:33:42.700Z,8
2017-05-19T03:34:43.280Z,8
2017-05-19T03:35:43.858Z,4
2017-05-19T03:36:44.438Z,8
2017-05-19T03:37:45.019Z,8
2017-05-19T03:38:45.593Z,12
2017-05-19T03:39:46.172Z,8
2017-05-19T03:40:46.751Z,12
2017-05-19T03:41:47.331Z,8
2017-05-19T03:42:47.910Z,12
2017-05-19T03:43:48.490Z,12
2017-05-19T03:44:49.069Z,16
2017-05-19T03:45:49.646Z,12
2017-05-19T03:46:50.225Z,16
2017-05-19T03:47:50.805Z,16
2017-05-19T03:48:51.387Z,16
2017-05-19T03:49:51.964Z,16
2017-05-19T03:50:52.543Z,20
2017-05-19T03:51:53.122Z,20
2017-05-19T03:52:53.702Z,20
2017-05-19T03:53:54.283Z,20
2017-05-19T03:54:54.862Z,20
2017-05-19T03:55:55.443Z,20
2017-05-19T03:56:56.021Z,24
2017-05-19T03:57:56.600Z,20
2017-05-19T03:58:57.177Z,28
2017-05-19T03:59:57.762Z,28
2017-05-19T04:00:58.336Z,28
2017-05-19T04:01:58.914Z,32
2017-05-19T04:02:59.496Z,36
2017-05-19T04:04:00.075Z,40
2017-05-19T04:05:00.654Z,44
2017-05-19T04:06:01.234Z,44
2017-05-19T04:07:01.813Z,52
2017-05-19T04:08:02.395Z,56
2017-05-19T04:09:02.973Z,60
2017-05-19T04:10:03.551Z,64
2017-05-19T04:11:04.130Z,68
2017-05-19T04:12:04.710Z,68
2017-05-19T04:13:05.292Z,72
2017-05-19T04:14:05.870Z,76
2017-05-19T04:15:06.447Z,76
2017-05-19T04:16:07.024Z,76
2017-05-19T04:17:07.603Z,80
2017-05-19T04:18:08.184Z,84
2017-05-19T04:19:08.767Z,84
2017-05-19T04:20:09.357Z,92
2017-05-19T04:21:09.937Z,96
2017-05-19T04:22:10.517Z,100
2017-05-19T04:23:11.097Z,112
2017-05-19T04:24:11.676Z,116
2017-05-19T04:25:12.256Z,120
2017-05-19T04:26:12.837Z,132
2017-05-19T04:27:13.417Z,140
2017-05-19T04:28:13.996Z,148
2017-05-19T04:29:14.576Z,156
2017-05-19T04:30:15.171Z,160
2017-05-19T04:31:15.750Z,160
2017-05-19T04:32:16.332Z,164
2017-05-19T04:33:16.912Z,168
2017-05-19T04:34:17.496Z,176
2017-05-19T04:35:18.076Z,176
2017-05-19T04:36:18.657Z,180
2017-05-19T04:37:19.240Z,180
2017-05-19T04:38:19.819Z,188
2017-05-19T04:39:20.400Z,188
2017-05-19T04:40:20.979Z,192
2017-05-19T04:41:21.561Z,196
2017-05-19T04:42:22.158Z,196
2017-05-19T04:43:22.740Z,200
2017-05-19T04:44:23.321Z,204
2017-05-19T04:45:23.904Z,204
2017-05-19T04:46:24.485Z,204
2017-05-19T04:47:25.066Z,204
2017-05-19T04:48:25.649Z,204
2017-05-19T04:49:26.230Z,204
2017-05-19T04:50:26.813Z,200
2017-05-19T04:51:27.395Z,196
2017-05-19T04:52:27.976Z,192
2017-05-19T04:53:28.558Z,188
2017-05-19T04:54:29.140Z,180
2017-05-19T04:55:29.722Z,168
2017-05-19T04:56:30.305Z,156
2017-05-19T04:57:30.886Z,148
2017-05-19T04:58:31.465Z,140
2017-05-19T04:59:32.048Z,136
2017-05-19T05:00:32.628Z,128
2017-05-19T05:01:33.222Z,128
2017-05-19T05:02:33.805Z,120
2017-05-19T05:03:34.386Z,124
2017-05-19T05:04:34.966Z,120
2017-05-19T05:05:35.549Z,120
2017-05-19T05:06:36.128Z,124
2017-05-19T05:07:36.711Z,124
2017-05-19T05:08:37.292Z,120
2017-05-19T05:09:37.873Z,124
2017-05-19T05:10:38.457Z,124
2017-05-19T05:11:39.037Z,124
2017-05-19T05:12:39.621Z,124
2017-05-19T05:13:40.213Z,124
2017-05-19T05:14:40.793Z,120
2017-05-19T05:15:41.373Z,120
2017-05-19T05:16:41.955Z,124
2017-05-19T05:17:42.537Z,120
2017-05-19T05:18:43.120Z,120
2017-05-19T05:19:43.714Z,124
2017-05-19T05:20:44.281Z,124
2017-05-19T05:21:44.864Z,124
2017-05-19T05:22:45.446Z,124
2017-05-19T05:23:46.025Z,124
2017-05-19T05:24:46.604Z,132
2017-05-19T05:25:47.185Z,136
2017-05-19T05:26:47.767Z,140
2017-05-19T05:27:48.348Z,144
2017-05-19T05:28:48.932Z,144
2017-05-19T05:29:49.528Z,148
2017-05-19T05:30:50.091Z,152
2017-05-19T05:31:50.677Z,156
2017-05-19T05:32:51.255Z,156
2017-05-19T05:33:51.837Z,160
2017-05-19T05:34:52.418Z,160
2017-05-19T05:35:52.998Z,164
2017-05-19T05:36:53.582Z,164
2017-05-19T05:37:54.164Z,164
2017-05-19T05:38:54.794Z,164
2017-05-19T05:39:55.377Z,164
2017-05-19T05:40:55.957Z,168
2017-05-19T05:41:56.539Z,172
2017-05-19T05:42:57.132Z,176
2017-05-19T05:43:57.712Z,176
2017-05-19T05:44:58.293Z,180
2017-05-19T05:45:58.873Z,188
2017-05-19T05:46:59.455Z,192
2017-05-19T05:48:00.036Z,196
2017-05-19T05:49:00.618Z,200
2017-05-19T05:50:01.197Z,204
2017-05-19T05:51:01.778Z,204
2017-05-19T05:52:02.363Z,208
2017-05-19T05:53:02.942Z,216
2017-05-19T05:54:03.523Z,220
2017-05-19T05:55:04.103Z,224
2017-05-19T05:56:04.685Z,232
2017-05-19T05:57:05.268Z,236
2017-05-19T05:58:05.852Z,240
2017-05-19T05:59:06.434Z,244
2017-05-19T06:00:07.017Z,240
2017-05-19T06:01:07.603Z,232
2017-05-19T06:02:08.185Z,236
2017-05-19T06:03:08.772Z,248
2017-05-19T06:04:09.350Z,252
2017-05-19T06:05:09.946Z,248
2017-05-19T06:06:10.528Z,276
2017-05-19T06:07:11.110Z,304
2017-05-19T06:08:11.690Z,316
2017-05-19T06:09:12.274Z,324
2017-05-19T06:10:12.856Z,324
2017-05-19T06:11:13.437Z,332
2017-05-19T06:12:14.020Z,336
2017-05-19T06:13:14.604Z,336
2017-05-19T06:14:15.202Z,344
2017-05-19T06:15:15.783Z,344
2017-05-19T06:16:16.367Z,348
2017-05-19T06:17:16.948Z,356
2017-05-19T06:18:17.531Z,364
2017-05-19T06:19:18.116Z,372
2017-05-19T06:20:18.698Z,372
2017-05-19T06:21:19.280Z,376
2017-05-19T06:22:19.865Z,376
2017-05-19T06:23:20.449Z,376
2017-05-19T06:24:21.026Z,372
2017-05-19T06:25:21.610Z,376
2017-05-19T06:26:22.190Z,372
2017-05-19T06:27:22.774Z,368
2017-05-19T06:28:23.355Z,372
2017-05-19T06:29:23.956Z,376
2017-05-19T06:30:24.532Z,380
2017-05-19T06:31:25.115Z,376
2017-05-19T06:32:25.697Z,380
2017-05-19T06:33:26.280Z,380
2017-05-19T06:34:26.863Z,372
2017-05-19T06:35:27.445Z,364
2017-05-19T06:36:28.028Z,372
2017-05-19T06:37:28.610Z,388
2017-05-19T06:38:29.193Z,424
2017-05-19T06:39:29.777Z,440
2017-05-19T06:40:30.358Z,440
2017-05-19T06:41:30.941Z,436
2017-05-19T06:42:31.524Z,440
2017-05-19T06:43:32.106Z,440
2017-05-19T06:44:32.689Z,432
2017-05-19T06:45:33.269Z,428
2017-05-19T06:46:33.852Z,420
2017-05-19T06:47:34.435Z,404
2017-05-19T06:48:35.016Z,392
2017-05-19T06:49:35.597Z,404
2017-05-19T06:50:36.201Z,404
2017-05-19T06:51:36.764Z,368
2017-05-19T06:52:37.348Z,284
2017-05-19T06:53:37.932Z,312
2017-05-19T06:54:38.511Z,400
2017-05-19T06:55:39.095Z,412
2017-05-19T06:56:39.676Z,356
2017-05-19T06:57:40.258Z,256
2017-05-19T06:58:40.853Z,196
2017-05-19T06:59:41.435Z,120
2017-05-19T07:00:42.017Z,68
2017-05-19T07:01:42.599Z,48
2017-05-19T07:02:43.178Z,44
2017-05-19T07:03:43.759Z,52
2017-05-19T07:04:44.340Z,64
2017-05-19T07:05:44.921Z,80
2017-05-19T07:06:45.502Z,80
2017-05-19T07:07:46.134Z,84
2017-05-19T07:08:46.678Z,112
2017-05-19T07:09:47.262Z,116
2017-05-19T07:10:47.840Z,112
2017-05-19T07:11:48.428Z,144
2017-05-19T07:12:49.020Z,200
2017-05-19T07:13:49.602Z,208
2017-05-19T07:14:50.183Z,208
2017-05-19T07:15:50.762Z,224
2017-05-19T07:16:51.347Z,280
2017-05-19T07:17:51.928Z,292
2017-05-19T07:18:52.509Z,296
2017-05-19T07:19:53.092Z,252
2017-05-19T07:20:53.674Z,256
2017-05-19T07:21:54.256Z,256
2017-05-19T07:22:54.895Z,276
2017-05-19T07:23:55.419Z,300
2017-05-19T07:24:56.001Z,288
2017-05-19T07:25:56.582Z,296
2017-05-19T07:26:57.163Z,320
2017-05-19T07:27:57.743Z,336
2017-05-19T07:28:58.325Z,328
2017-05-19T07:29:58.909Z,304
2017-05-19T07:30:59.490Z,300
2017-05-19T07:32:00.077Z,304
2017-05-19T07:33:00.654Z,324
2017-05-19T07:34:01.234Z,392
2017-05-19T07:35:02.015Z,424
2017-05-19T07:36:02.596Z,452
2017-05-19T07:37:03.180Z,452
2017-05-19T07:38:03.757Z,440
2017-05-19T07:39:04.339Z,420
2017-05-19T07:40:04.921Z,420
2017-05-19T07:41:05.507Z,420
2017-05-19T07:42:06.083Z,408
2017-05-19T07:43:06.667Z,384
2017-05-19T07:44:07.247Z,388
2017-05-19T07:45:07.828Z,404
2017-05-19T07:46:08.409Z,392
2017-05-19T07:47:08.990Z,384
2017-05-19T07:48:09.572Z,384
2017-05-19T07:49:10.167Z,392
2017-05-19T07:50:10.752Z,392
2017-05-19T07:51:11.328Z,380
2017-05-19T07:52:11.913Z,384
2017-05-19T07:53:12.509Z,400
2017-05-19T07:54:13.089Z,408
2017-05-19T07:55:13.671Z,400
2017-05-19T07:56:14.250Z,388
2017-05-19T07:57:14.832Z,372
2017-05-19T07:58:15.414Z,356
2017-05-19T07:59:15.994Z,344
2017-05-19T08:00:16.576Z,344
2017-05-19T08:01:17.158Z,356
2017-05-19T08:02:17.738Z,356
2017-05-19T08:03:18.320Z,344
2017-05-19T08:04:18.902Z,324
2017-05-19T08:05:19.482Z,304
2017-05-19T08:06:20.063Z,300
2017-05-19T08:07:20.644Z,324
2017-05-19T08:08:21.222Z,308
2017-05-19T08:09:21.806Z,280
2017-05-19T08:10:22.386Z,272
2017-05-19T08:11:22.967Z,268
2017-05-19T08:12:23.551Z,272
2017-05-19T08:13:24.131Z,256
2017-05-19T08:14:24.713Z,260
2017-05-19T08:15:25.296Z,264
2017-05-19T08:16:25.877Z,268
2017-05-19T08:17:26.458Z,304
2017-05-19T08:18:27.038Z,324
2017-05-19T08:19:27.618Z,336
2017-05-19T08:20:28.200Z,328
2017-05-19T08:21:28.780Z,336
2017-05-19T08:22:29.360Z,352
2017-05-19T08:23:29.942Z,364
2017-05-19T08:24:30.522Z,376
2017-05-19T08:25:31.103Z,368
2017-05-19T08:26:31.684Z,380
2017-05-19T08:27:32.269Z,380
2017-05-19T08:28:32.849Z,368
2017-05-19T08:29:33.429Z,376
2017-05-19T08:30:34.011Z,352
2017-05-19T08:31:34.594Z,348
2017-05-19T08:32:35.174Z,340
2017-05-19T08:33:35.755Z,392
2017-05-19T08:34:36.338Z,404
2017-05-19T08:35:36.917Z,448
2017-05-19T08:36:37.498Z,476
2017-05-19T08:37:38.091Z,484
2017-05-19T08:38:38.671Z,484
2017-05-19T08:39:39.251Z,484
2017-05-19T08:40:39.840Z,476
2017-05-19T08:41:40.415Z,476
2017-05-19T08:42:40.996Z,492
2017-05-19T08:43:41.577Z,536
2017-05-19T08:44:42.158Z,572
2017-05-19T08:45:42.739Z,592
2017-05-19T08:46:43.321Z,596
2017-05-19T08:47:43.901Z,584
2017-05-19T08:48:44.488Z,584
2017-05-19T08:49:45.067Z,596
2017-05-19T08:50:45.648Z,608
2017-05-19T08:51:46.229Z,620
2017-05-19T08:52:46.809Z,632
2017-05-19T08:53:47.390Z,644
2017-05-19T08:54:47.972Z,648
2017-05-19T08:55:48.552Z,652
2017-05-19T08:56:49.134Z,656
2017-05-19T08:57:49.712Z,672
2017-05-19T08:58:50.293Z,676
2017-05-19T08:59:50.875Z,692
2017-05-19T09:00:51.470Z,700
2017-05-19T09:01:52.050Z,696
2017-05-19T09:02:52.631Z,692
2017-05-19T09:03:53.213Z,680
2017-05-19T09:04:53.793Z,680
2017-05-19T09:05:54.373Z,680
2017-05-19T09:06:54.953Z,680
2017-05-19T09:07:55.533Z,684
2017-05-19T09:08:56.126Z,696
2017-05-19T09:09:56.708Z,704
2017-05-19T09:10:57.287Z,716
2017-05-19T09:11:57.870Z,720
2017-05-19T09:12:58.448Z,716
2017-05-19T09:13:59.043Z,712
2017-05-19T09:14:59.625Z,704
2017-05-19T09:16:00.207Z,696
2017-05-19T09:17:00.785Z,692
2017-05-19T09:18:01.366Z,688
2017-05-19T09:19:01.946Z,680
2017-05-19T09:20:02.528Z,676
2017-05-19T09:21:03.108Z,676
2017-05-19T09:22:03.689Z,672
2017-05-19T09:23:04.270Z,676
2017-05-19T09:24:04.851Z,672
2017-05-19T09:25:05.432Z,668
2017-05-19T09:26:06.012Z,668
2017-05-19T09:27:06.594Z,664
2017-05-19T09:28:07.174Z,660
2017-05-19T09:29:07.753Z,660
2017-05-19T09:30:08.335Z,656
2017-05-19T09:31:08.915Z,648
2017-05-19T09:32:09.499Z,636
2017-05-19T09:33:10.079Z,620
2017-05-19T09:34:10.660Z,604
2017-05-19T09:35:11.241Z,600
2017-05-19T09:36:11.821Z,592
2017-05-19T09:37:12.413Z,592
2017-05-19T09:38:12.994Z,588
2017-05-19T09:39:13.574Z,588
2017-05-19T09:40:14.155Z,592
2017-05-19T09:41:14.737Z,600
2017-05-19T09:42:15.318Z,604
2017-05-19T09:43:15.899Z,604
2017-05-19T09:44:16.479Z,608
2017-05-19T09:45:17.060Z,608
2017-05-19T09:46:17.639Z,612
2017-05-19T09:47:18.220Z,612
2017-05-19T09:48:18.801Z,608
2017-05-19T09:49:19.382Z,604
2017-05-19T09:50:19.963Z,592
2017-05-19T09:51:20.546Z,580
2017-05-19T09:52:21.130Z,568
2017-05-19T09:53:21.705Z,564
2017-05-19T09:54:22.285Z,568
2017-05-19T09:55:22.870Z,568
2017-05-19T09:56:23.547Z,576
2017-05-19T09:57:24.139Z,580
2017-05-19T09:58:24.720Z,588
2017-05-19T09:59:25.370Z,600
2017-05-19T10:00:25.895Z,616
2017-05-19T10:01:26.474Z,632
2017-05-19T10:02:27.054Z,644
2017-05-19T10:03:27.636Z,660
2017-05-19T10:04:28.217Z,672
2017-05-19T10:05:28.797Z,684
2017-05-19T10:06:29.377Z,696
2017-05-19T10:07:29.959Z,704
2017-05-19T10:08:30.541Z,716
2017-05-19T10:09:31.121Z,724
2017-05-19T10:10:31.700Z,736
2017-05-19T10:11:32.283Z,748
2017-05-19T10:12:32.863Z,752
2017-05-19T10:13:33.443Z,736
2017-05-19T10:14:34.022Z,744
2017-05-19T10:15:34.602Z,744
2017-05-19T10:16:35.184Z,736
2017-05-19T10:17:35.764Z,724
2017-05-19T10:18:36.347Z,712
2017-05-19T10:19:36.927Z,704
2017-05-19T10:20:37.507Z,692
2017-05-19T10:21:38.088Z,684
2017-05-19T10:22:38.671Z,672
2017-05-19T10:23:39.251Z,660
2017-05-19T10:24:39.882Z,652
2017-05-19T10:25:40.412Z,652
2017-05-19T10:26:40.993Z,652
2017-05-19T10:27:41.574Z,660
2017-05-19T10:28:42.153Z,672
2017-05-19T10:29:42.734Z,684
2017-05-19T10:30:43.319Z,696
2017-05-19T10:31:43.895Z,712
2017-05-19T10:32:44.488Z,732
2017-05-19T10:33:45.070Z,756
2017-05-19T10:34:45.649Z,776
2017-05-19T10:35:46.230Z,792
2017-05-19T10:36:46.811Z,804
2017-05-19T10:37:47.390Z,816
2017-05-19T10:38:47.971Z,824
2017-05-19T10:39:48.552Z,824
2017-05-19T10:40:49.132Z,824
2017-05-19T10:41:49.712Z,828
2017-05-19T10:42:50.291Z,824
2017-05-19T10:43:50.880Z,816
2017-05-19T10:44:51.463Z,800
2017-05-19T10:45:52.045Z,780
2017-05-19T10:46:52.638Z,764
2017-05-19T10:47:53.218Z,748
2017-05-19T10:48:53.803Z,736
2017-05-19T10:49:54.384Z,720
2017-05-19T10:50:54.965Z,700
2017-05-19T10:51:55.547Z,668
2017-05-19T10:52:56.129Z,628
2017-05-19T10:53:56.707Z,600
2017-05-19T10:54:57.289Z,584
2017-05-19T10:55:57.882Z,580
2017-05-19T10:56:58.462Z,576
2017-05-19T10:57:59.046Z,576
2017-05-19T10:58:59.641Z,568
2017-05-19T11:00:00.221Z,552
2017-05-19T11:01:00.802Z,528
2017-05-19T11:02:01.383Z,508
2017-05-19T11:03:01.964Z,488
2017-05-19T11:04:02.545Z,476
2017-05-19T11:05:03.130Z,472
2017-05-19T11:06:03.707Z,460
2017-05-19T11:07:04.291Z,448
2017-05-19T11:08:04.871Z,436
2017-05-19T11:09:05.451Z,424
2017-05-19T11:10:06.035Z,412
2017-05-19T11:11:06.616Z,404
2017-05-19T11:12:07.196Z,392
2017-05-19T11:13:07.778Z,380
2017-05-19T11:14:08.358Z,372
2017-05-19T11:15:08.939Z,360
2017-05-19T11:16:09.520Z,360
2017-05-19T11:17:10.099Z,360
2017-05-19T11:18:10.680Z,364
2017-05-19T11:19:11.260Z,364
2017-05-19T11:20:11.853Z,376
2017-05-19T11:21:12.448Z,384
2017-05-19T11:22:13.030Z,392
2017-05-19T11:23:13.614Z,400
2017-05-19T11:24:14.196Z,404
2017-05-19T11:25:14.777Z,404
2017-05-19T11:26:15.361Z,392
2017-05-19T11:27:15.941Z,392
2017-05-19T11:28:16.535Z,392
2017-05-19T11:29:17.129Z,396
2017-05-19T11:30:17.710Z,404
2017-05-19T11:31:18.290Z,416
2017-05-19T11:32:18.870Z,432
2017-05-19T11:33:19.451Z,456
2017-05-19T11:34:20.033Z,480
2017-05-19T11:35:20.615Z,516
2017-05-19T11:36:21.197Z,548
2017-05-19T11:37:21.777Z,568
2017-05-19T11:38:22.360Z,596
2017-05-19T11:39:22.942Z,616
2017-05-19T11:40:23.525Z,624
2017-05-19T11:41:24.107Z,624
2017-05-19T11:42:24.722Z,612
2017-05-19T11:43:25.303Z,604
2017-05-19T11:44:25.883Z,576
2017-05-19T11:45:26.478Z,576
2017-05-19T11:46:27.072Z,548
2017-05-19T11:47:27.666Z,532
2017-05-19T11:48:28.247Z,536
2017-05-19T11:49:28.827Z,524
2017-05-19T11:50:29.408Z,508
2017-05-19T11:51:29.993Z,532
2017-05-19T11:52:30.570Z,540
2017-05-19T11:53:31.152Z,548
2017-05-19T11:54:31.733Z,544
2017-05-19T11:55:32.328Z,560
2017-05-19T11:56:32.909Z,556
2017-05-19T11:57:33.490Z,580
2017-05-19T11:58:34.082Z,532
2017-05-19T11:59:34.664Z,484
2017-05-19T12:00:35.248Z,460
2017-05-19T12:01:35.828Z,432
2017-05-19T12:02:36.424Z,424
2017-05-19T12:03:37.004Z,384
2017-05-19T12:04:37.585Z,352
2017-05-19T12:05:38.166Z,324
2017-05-19T12:06:38.804Z,344
2017-05-19T12:07:39.385Z,372
2017-05-19T12:08:39.968Z,412
2017-05-19T12:09:40.548Z,424
2017-05-19T12:10:41.129Z,408
2017-05-19T12:11:41.711Z,380
2017-05-19T12:12:42.290Z,364
2017-05-19T12:13:42.872Z,336
2017-05-19T12:14:43.452Z,316
2017-05-19T12:15:44.032Z,296
2017-05-19T12:16:44.616Z,292
2017-05-19T12:17:45.195Z,300
2017-05-19T12:18:45.776Z,316
2017-05-19T12:19:46.370Z,340
2017-05-19T12:20:46.952Z,356
2017-05-19T12:21:47.536Z,380
2017-05-19T12:22:48.114Z,388
2017-05-19T12:23:48.693Z,392
2017-05-19T12:24:49.322Z,396
2017-05-19T12:25:49.902Z,400
2017-05-19T12:26:50.511Z,400
2017-05-19T12:27:51.096Z,384
2017-05-19T12:28:51.674Z,360
2017-05-19T12:29:52.255Z,340
2017-05-19T12:30:52.840Z,316
2017-05-19T12:31:53.418Z,288
2017-05-19T12:32:53.999Z,248
2017-05-19T12:33:54.581Z,244
2017-05-19T12:34:55.160Z,236
2017-05-19T12:35:55.741Z,232
2017-05-19T12:36:56.334Z,204
2017-05-19T12:37:56.929Z,204
2017-05-19T12:38:57.508Z,196
2017-05-19T12:39:58.087Z,212
2017-05-19T12:40:58.667Z,236
2017-05-19T12:41:59.247Z,256
2017-05-19T12:42:59.827Z,280
2017-05-19T12:44:00.408Z,300
2017-05-19T12:45:00.988Z,312
2017-05-19T12:46:01.572Z,320
2017-05-19T12:47:02.151Z,332
2017-05-19T12:48:02.730Z,352
2017-05-19T12:49:03.311Z,376
2017-05-19T12:50:03.892Z,388
2017-05-19T12:51:04.475Z,400
2017-05-19T12:52:05.055Z,404
2017-05-19T12:53:05.635Z,412
2017-05-19T12:54:06.216Z,424
2017-05-19T12:55:06.796Z,432
2017-05-19T12:56:07.376Z,432
2017-05-19T12:57:07.955Z,432
2017-05-19T12:58:08.536Z,440
2017-05-19T12:59:09.118Z,460
2017-05-19T13:00:09.698Z,484
2017-05-19T13:01:10.282Z,496
2017-05-19T13:02:10.859Z,480
2017-05-19T13:03:11.437Z,448
2017-05-19T13:04:12.019Z,416
2017-05-19T13:05:12.598Z,400
2017-05-19T13:06:13.179Z,388
2017-05-19T13:07:13.772Z,348
2017-05-19T13:08:14.354Z,300
2017-05-19T13:09:14.933Z,272
2017-05-19T13:10:15.529Z,256
2017-05-19T13:11:16.107Z,236
2017-05-19T13:12:16.686Z,188
2017-05-19T13:13:17.266Z,168
2017-05-19T13:14:17.849Z,156
2017-05-19T13:15:18.428Z,156
2017-05-19T13:16:19.010Z,136
2017-05-19T13:17:19.598Z,120
2017-05-19T13:18:20.177Z,128
2017-05-19T13:19:20.756Z,136
2017-05-19T13:20:21.337Z,128
2017-05-19T13:21:21.929Z,124
2017-05-19T13:22:22.510Z,128
2017-05-19T13:23:23.091Z,132
2017-05-19T13:24:23.669Z,132
2017-05-19T13:25:24.248Z,140
2017-05-19T13:26:24.827Z,180
2017-05-19T13:27:25.409Z,188
2017-05-19T13:28:25.998Z,180
2017-05-19T13:29:26.580Z,216
2017-05-19T13:30:27.159Z,260
2017-05-19T13:31:27.741Z,288
2017-05-19T13:32:28.320Z,316
2017-05-19T13:33:28.900Z,340
2017-05-19T13:34:29.483Z,368
2017-05-19T13:35:30.064Z,396
2017-05-19T13:36:30.647Z,412
2017-05-19T13:37:31.227Z,428
2017-05-19T13:38:31.806Z,428
2017-05-19T13:39:32.385Z,424
2017-05-19T13:40:32.966Z,408
2017-05-19T13:41:33.548Z,392
2017-05-19T13:42:34.128Z,368
2017-05-19T13:43:34.708Z,336
2017-05-19T13:44:35.288Z,304
2017-05-19T13:45:35.870Z,272
2017-05-19T13:46:36.464Z,240
2017-05-19T13:47:37.048Z,240
2017-05-19T13:48:37.623Z,248
2017-05-19T13:49:38.204Z,248
2017-05-19T13:50:38.783Z,256
2017-05-19T13:51:39.366Z,252
2017-05-19T13:52:39.958Z,248
2017-05-19T13:53:40.537Z,284
2017-05-19T13:54:41.118Z,300
2017-05-19T13:55:41.698Z,292
2017-05-19T13:56:42.279Z,264
2017-05-19T13:57:42.874Z,252
2017-05-19T13:58:43.453Z,244
2017-05-19T13:59:44.033Z,256
2017-05-19T14:00:44.614Z,276
2017-05-19T14:01:45.196Z,296
2017-05-19T14:02:45.776Z,312
2017-05-19T14:03:46.355Z,312
2017-05-19T14:04:46.935Z,308
2017-05-19T14:05:47.515Z,312
2017-05-19T14:06:48.093Z,324
2017-05-19T14:07:48.674Z,328
2017-05-19T14:08:49.255Z,340
2017-05-19T14:09:49.835Z,348
2017-05-19T14:10:50.415Z,356